createdAt,value
2022-12-18T00:01:54.834Z,17.00
2022-12-18T00:04:27.378Z,14.82
2022-12-18T00:06:58.137Z,14.02
2022-12-18T00:09:31.350Z,14.15
2022-12-18T00:14:45.724Z,18.67
2022-12-18T00:17:16.121Z,17.48
2022-12-18T00:19:46.137Z,19.17
2022-12-18T00:22:16.535Z,11.95
2022-12-18T00:24:46.342Z,11.45
2022-12-18T00:27:16.750Z,10.52
2022-12-18T00:29:46.982Z,18.55
2022-12-18T00:32:17.589Z,11.60
2022-12-18T00:34:47.495Z,18.20
2022-12-18T00:37:20.305Z,11.52
2022-12-18T00:39:54.011Z,13.73
2022-12-18T00:42:44.364Z,12.23
2022-12-18T00:45:17.214Z,16.00
2022-12-18T00:47:47.338Z,13.65
2022-12-18T00:50:18.108Z,11.15
2022-12-18T00:52:48.183Z,15.35
2022-12-18T00:55:19.878Z,14.23
2022-12-18T00:57:50.214Z,15.73
2022-12-18T01:00:21.341Z,13.95
2022-12-18T01:02:57.990Z,13.65
2022-12-18T01:05:29.237Z,12.85
2022-12-18T01:07:59.872Z,17.80
2022-12-18T01:10:30.489Z,16.30
2022-12-18T01:15:29.984Z,18.33
2022-12-18T01:18:00.463Z,18.80
2022-12-18T01:20:30.532Z,11.00
2022-12-18T01:23:02.076Z,12.57
2022-12-18T01:25:32.609Z,11.45
2022-12-18T01:28:03.856Z,13.25
2022-12-18T01:30:35.284Z,15.57
2022-12-18T01:33:07.801Z,17.17
2022-12-18T01:35:44.161Z,10.13
2022-12-18T01:38:14.534Z,10.73
2022-12-18T01:40:44.332Z,13.15
2022-12-18T01:43:14.858Z,10.60
2022-12-18T01:45:45.098Z,12.40
2022-12-18T01:48:16.594Z,20.20
2022-12-18T01:50:46.997Z,11.73
2022-12-18T01:53:25.360Z,10.93
2022-12-18T01:55:58.592Z,11.52
2022-12-18T01:58:57.570Z,13.70
2022-12-18T02:01:28.838Z,12.40
2022-12-18T02:04:16.749Z,10.35
2022-12-18T02:06:47.967Z,8.55
2022-12-18T02:09:27.535Z,10.80
2022-12-18T02:12:11.177Z,14.23
2022-12-18T02:15:02.690Z,15.00
2022-12-18T02:17:40.254Z,10.25
2022-12-18T02:20:41.831Z,10.85
2022-12-18T02:23:20.565Z,10.07
2022-12-18T02:26:13.098Z,11.85
2022-12-18T02:28:51.862Z,11.45
2022-12-18T02:31:34.050Z,14.10
2022-12-18T02:34:08.129Z,12.55
2022-12-18T02:36:44.337Z,10.70
2022-12-18T02:39:16.940Z,7.45
2022-12-18T02:42:01.888Z,11.05
2022-12-18T02:44:31.873Z,14.63
2022-12-18T02:47:02.649Z,10.45
2022-12-18T02:49:53.941Z,10.48
2022-12-18T02:52:41.960Z,13.65
2022-12-18T02:55:23.917Z,11.80
2022-12-18T02:58:21.515Z,13.70
2022-12-18T03:01:22.642Z,10.82
2022-12-18T03:06:36.037Z,6.68
2022-12-18T03:09:15.086Z,6.78
2022-12-18T03:12:08.889Z,8.95
2022-12-18T03:14:40.778Z,12.90
2022-12-18T03:17:19.050Z,12.38
2022-12-18T03:19:51.786Z,21.90
2022-12-18T03:22:24.776Z,13.73
2022-12-18T03:25:01.544Z,21.15
2022-12-18T03:27:36.001Z,14.25
2022-12-18T03:30:14.392Z,14.10
2022-12-18T03:33:01.205Z,19.67
2022-12-18T03:35:37.448Z,16.27
2022-12-18T03:38:08.864Z,16.38
2022-12-18T03:40:55.646Z,14.90
2022-12-18T03:43:55.961Z,12.73
2022-12-18T03:46:43.028Z,19.65
2022-12-18T03:49:15.433Z,12.32
2022-12-18T03:51:58.991Z,15.73
2022-12-18T03:54:30.858Z,13.27
2022-12-18T03:57:15.272Z,14.20
2022-12-18T03:59:48.270Z,15.00
2022-12-18T04:02:21.927Z,18.23
2022-12-18T04:04:57.695Z,10.88
2022-12-18T04:07:29.436Z,14.25
2022-12-18T04:10:02.912Z,12.13
2022-12-18T04:12:34.588Z,13.75
2022-12-18T04:17:34.116Z,14.70
2022-12-18T04:20:04.986Z,11.57
2022-12-18T04:25:04.933Z,19.67
2022-12-18T04:27:41.529Z,11.50
2022-12-18T04:30:12.751Z,15.02
2022-12-18T04:32:47.729Z,19.98
2022-12-18T04:35:20.804Z,11.50
2022-12-18T04:37:51.294Z,14.45
2022-12-18T04:40:21.378Z,12.18
2022-12-18T04:42:51.988Z,13.43
2022-12-18T04:45:21.982Z,16.25
2022-12-18T04:47:52.451Z,15.15
2022-12-18T04:50:22.503Z,12.07
2022-12-18T04:52:52.321Z,12.65
2022-12-18T04:55:22.793Z,16.30
2022-12-18T04:57:53.998Z,17.75
2022-12-18T05:00:25.161Z,15.43
2022-12-18T05:02:55.334Z,12.68
2022-12-18T05:05:26.334Z,20.23
2022-12-18T05:07:56.377Z,13.35
2022-12-18T05:10:26.782Z,16.30
2022-12-18T05:13:03.298Z,10.65
2022-12-18T05:15:35.324Z,9.88
2022-12-18T05:18:06.017Z,18.10
2022-12-18T05:20:36.551Z,10.82
2022-12-18T05:23:06.558Z,13.48
2022-12-18T05:25:36.316Z,13.45
2022-12-18T05:30:36.118Z,15.30
2022-12-18T05:33:06.326Z,17.17
2022-12-18T05:35:36.714Z,6.85
2022-12-18T05:38:07.308Z,12.23
2022-12-18T05:40:38.869Z,15.75
2022-12-18T05:43:08.845Z,9.63
2022-12-18T05:45:42.518Z,12.85
2022-12-18T05:48:12.778Z,13.80
2022-12-18T05:50:47.508Z,11.80
2022-12-18T05:53:21.350Z,13.80
2022-12-18T05:55:51.720Z,14.48
2022-12-18T05:58:21.829Z,11.65
2022-12-18T06:00:52.247Z,14.13
2022-12-18T06:03:22.367Z,20.80
2022-12-18T06:05:52.953Z,11.80
2022-12-18T06:08:22.954Z,11.80
2022-12-18T06:13:24.955Z,9.10
2022-12-18T06:15:55.827Z,12.65
2022-12-18T06:18:25.853Z,13.88
2022-12-18T06:21:00.383Z,10.48
2022-12-18T06:23:30.774Z,12.38
2022-12-18T06:26:01.600Z,11.00
2022-12-18T06:28:31.574Z,9.52
2022-12-18T06:31:01.520Z,10.68
2022-12-18T06:33:32.369Z,11.20
2022-12-18T06:36:08.327Z,6.78
2022-12-18T06:38:41.057Z,12.73
2022-12-18T06:41:12.857Z,14.27
2022-12-18T06:43:43.586Z,8.82
2022-12-18T06:46:14.847Z,15.93
2022-12-18T06:48:45.710Z,17.80
2022-12-18T06:51:22.504Z,7.85
2022-12-18T06:53:53.122Z,8.40
2022-12-18T06:56:23.217Z,14.02
2022-12-18T06:58:53.796Z,12.93
2022-12-18T07:01:24.435Z,13.98
2022-12-18T07:03:57.008Z,8.65
2022-12-18T07:06:28.363Z,11.60
2022-12-18T07:08:59.028Z,6.53
2022-12-18T07:11:29.127Z,10.45
2022-12-18T07:13:59.870Z,10.25
2022-12-18T07:16:33.026Z,14.52
2022-12-18T07:19:03.696Z,13.15
2022-12-18T07:21:33.649Z,7.20
2022-12-18T07:24:04.513Z,9.32
2022-12-18T07:26:34.520Z,8.80
2022-12-18T07:29:05.378Z,12.73
2022-12-18T07:31:36.404Z,6.75
2022-12-18T07:34:06.429Z,5.57
2022-12-18T07:36:37.025Z,10.90
2022-12-18T07:39:07.028Z,9.93
2022-12-18T07:44:13.172Z,11.40
2022-12-18T07:46:43.908Z,12.13
2022-12-18T07:51:43.053Z,8.15
2022-12-18T07:56:43.422Z,9.88
2022-12-18T07:59:13.924Z,9.48
2022-12-18T08:01:43.962Z,15.00
2022-12-18T08:04:14.411Z,11.93
2022-12-18T08:06:47.817Z,7.72
2022-12-18T08:09:19.103Z,5.18
2022-12-18T08:14:18.420Z,11.65
2022-12-18T08:16:48.966Z,11.38
2022-12-18T08:19:18.929Z,12.85
2022-12-18T08:24:18.738Z,9.35
2022-12-18T08:27:06.699Z,8.57
2022-12-18T08:29:39.446Z,14.30
2022-12-18T08:32:09.956Z,11.50
2022-12-18T08:34:40.461Z,12.02
2022-12-18T08:37:10.787Z,8.07
2022-12-18T08:39:41.254Z,8.07
2022-12-18T08:42:29.500Z,10.57
2022-12-18T08:44:59.870Z,10.02
2022-12-18T08:47:32.894Z,7.78
2022-12-18T08:50:03.381Z,10.32
2022-12-18T08:52:35.245Z,9.50
2022-12-18T08:55:06.357Z,4.57
2022-12-18T08:57:36.348Z,10.85
2022-12-18T09:00:07.978Z,6.45
2022-12-18T09:02:38.127Z,9.70
2022-12-18T09:05:08.964Z,14.50
2022-12-18T09:07:39.589Z,6.78
2022-12-18T09:10:10.258Z,13.30
2022-12-18T09:12:40.305Z,6.32
2022-12-18T09:15:11.200Z,8.57
2022-12-18T09:17:42.032Z,10.35
2022-12-18T09:20:12.908Z,7.60
2022-12-18T09:22:43.283Z,6.75
2022-12-18T09:25:13.729Z,7.07
2022-12-18T09:27:43.702Z,5.55
2022-12-18T09:30:14.318Z,9.43
2022-12-18T09:32:44.384Z,5.25
2022-12-18T09:35:15.032Z,7.15
2022-12-18T09:37:45.239Z,3.50
2022-12-18T09:40:23.544Z,4.88
2022-12-18T09:43:04.235Z,10.27
2022-12-18T09:45:46.417Z,11.85
2022-12-18T09:48:44.541Z,9.07
2022-12-18T09:51:22.180Z,8.20
2022-12-18T09:56:38.163Z,9.07
2022-12-18T09:59:08.307Z,6.93
2022-12-18T10:01:44.203Z,7.60
2022-12-18T10:04:15.181Z,6.72
2022-12-18T10:07:05.748Z,8.13
2022-12-18T10:09:41.878Z,8.52
2022-12-18T10:13:04.073Z,6.50
2022-12-18T10:15:44.798Z,6.55
2022-12-18T10:18:56.641Z,9.07
2022-12-18T10:21:41.845Z,5.60
2022-12-18T10:24:40.913Z,7.15
2022-12-18T10:27:15.732Z,4.75
2022-12-18T10:29:47.659Z,7.70
2022-12-18T10:32:25.110Z,4.53
2022-12-18T10:35:01.007Z,6.72
2022-12-18T10:37:32.765Z,7.15
2022-12-18T10:40:21.878Z,4.88
2022-12-18T10:43:15.607Z,4.72
2022-12-18T10:46:07.678Z,8.07
2022-12-18T10:48:42.896Z,6.22
2022-12-18T10:51:35.894Z,6.20
2022-12-18T10:54:20.632Z,8.73
2022-12-18T10:56:51.082Z,6.70
2022-12-18T10:59:56.797Z,5.78
2022-12-18T11:02:39.184Z,6.65
2022-12-18T11:05:38.949Z,7.30
2022-12-18T11:08:25.443Z,7.43
2022-12-18T11:10:55.562Z,10.32
2022-12-18T11:13:29.008Z,7.60
2022-12-18T11:15:59.484Z,6.82
2022-12-18T11:18:36.145Z,11.18
2022-12-18T11:21:11.888Z,7.45
2022-12-18T11:23:56.266Z,7.32
2022-12-18T11:26:38.100Z,9.05
2022-12-18T11:29:19.401Z,12.88
2022-12-18T11:31:50.730Z,10.57
2022-12-18T11:34:33.790Z,5.45
2022-12-18T11:37:06.263Z,8.02
2022-12-18T11:39:41.246Z,9.88
2022-12-18T11:42:22.586Z,9.20
2022-12-18T11:45:00.475Z,12.55
2022-12-18T11:47:52.033Z,9.52
2022-12-18T11:50:27.677Z,11.00
2022-12-18T11:53:02.844Z,12.52
2022-12-18T11:56:02.904Z,9.73
2022-12-18T11:58:50.460Z,9.73
2022-12-18T12:01:43.875Z,7.03
2022-12-18T12:04:23.359Z,8.70
2022-12-18T12:07:05.477Z,11.98
2022-12-18T12:10:04.981Z,5.18
2022-12-18T12:13:16.526Z,7.53
2022-12-18T12:16:07.478Z,8.57
2022-12-18T12:18:59.247Z,4.82
2022-12-18T12:21:48.877Z,8.93
2022-12-18T12:24:31.179Z,9.77
2022-12-18T12:27:11.231Z,7.43
2022-12-18T12:30:06.146Z,7.95
2022-12-18T12:32:48.016Z,7.13
2022-12-18T12:35:32.893Z,8.80
2022-12-18T12:38:22.608Z,11.65
2022-12-18T12:41:30.786Z,4.38
2022-12-18T12:44:06.557Z,9.20
2022-12-18T12:46:42.236Z,7.40
2022-12-18T12:49:20.304Z,8.77
2022-12-18T12:52:15.642Z,7.47
2022-12-18T12:54:47.483Z,6.38
2022-12-18T12:57:26.337Z,7.10
2022-12-18T13:00:11.960Z,7.20
2022-12-18T13:02:51.706Z,8.18
2022-12-18T13:05:39.860Z,8.13
2022-12-18T13:08:13.170Z,3.38
2022-12-18T13:10:44.821Z,6.40
2022-12-18T13:13:24.289Z,2.85
2022-12-18T13:16:09.597Z,5.13
2022-12-18T13:19:01.036Z,4.15
2022-12-18T13:21:36.166Z,4.22
2022-12-18T13:24:27.983Z,2.90
2022-12-18T13:26:58.281Z,3.25
2022-12-18T13:29:58.015Z,6.25
2022-12-18T13:32:29.531Z,3.13
2022-12-18T13:35:25.200Z,4.40
2022-12-18T13:37:57.301Z,5.05
2022-12-18T13:40:50.535Z,3.90
2022-12-18T13:43:23.585Z,2.20
2022-12-18T13:46:25.876Z,3.67
2022-12-18T13:49:31.668Z,2.10
2022-12-18T13:52:02.223Z,5.07
2022-12-18T13:54:39.817Z,4.32
2022-12-18T13:57:46.051Z,2.85
2022-12-18T14:00:30.849Z,2.95
2022-12-18T14:03:02.393Z,5.00
2022-12-18T14:05:38.790Z,5.47
2022-12-18T14:08:15.329Z,5.45
2022-12-18T14:10:52.414Z,3.35
2022-12-18T14:13:36.072Z,5.93
2022-12-18T14:16:08.497Z,4.18
2022-12-18T14:19:04.568Z,4.28
2022-12-18T14:21:40.383Z,3.00
2022-12-18T14:24:19.400Z,3.92
2022-12-18T14:26:51.690Z,3.00
2022-12-18T14:29:29.450Z,3.85
2022-12-18T14:32:20.698Z,5.47
2022-12-18T14:34:59.217Z,5.43
2022-12-18T14:37:30.301Z,5.57
2022-12-18T14:40:10.170Z,11.85
2022-12-18T14:42:41.310Z,6.30
2022-12-18T14:45:42.663Z,6.78
2022-12-18T14:48:48.852Z,4.70
2022-12-18T14:51:23.315Z,4.43
2022-12-18T14:54:00.642Z,4.20
2022-12-18T14:56:36.977Z,5.95
2022-12-18T14:59:19.249Z,5.28
2022-12-18T15:02:03.827Z,3.30
2022-12-18T15:04:46.030Z,5.68
2022-12-18T15:07:20.532Z,3.50
2022-12-18T15:10:13.497Z,4.47
2022-12-18T15:12:48.640Z,4.15
2022-12-18T15:15:39.757Z,3.85
2022-12-18T15:18:10.694Z,3.90
2022-12-18T15:20:46.092Z,4.28
2022-12-18T15:23:30.664Z,1.95
2022-12-18T15:26:03.846Z,3.70
2022-12-18T15:28:40.970Z,3.17
2022-12-18T15:31:16.577Z,2.60
2022-12-18T15:34:05.242Z,2.30
2022-12-18T15:36:38.564Z,3.55
2022-12-18T15:39:08.608Z,2.25
2022-12-18T15:41:39.171Z,3.13
2022-12-18T15:44:26.604Z,3.25
2022-12-18T15:46:57.994Z,3.42
2022-12-18T15:49:28.473Z,3.80
2022-12-18T15:52:01.827Z,3.65
2022-12-18T15:54:51.914Z,3.80
2022-12-18T15:57:27.718Z,4.07
2022-12-18T16:00:00.201Z,2.92
2022-12-18T16:02:31.009Z,3.92
2022-12-18T16:05:01.606Z,3.45
2022-12-18T16:07:31.467Z,4.65
2022-12-18T16:10:02.274Z,5.40
2022-12-18T16:12:33.220Z,3.38
2022-12-18T16:15:05.426Z,3.22
2022-12-18T16:17:35.888Z,4.07
2022-12-18T16:20:07.045Z,3.10
2022-12-18T16:22:37.078Z,5.63
2022-12-18T16:25:07.827Z,7.10
2022-12-18T16:27:39.324Z,4.88
2022-12-18T16:30:14.575Z,6.15
2022-12-18T16:32:45.793Z,4.57
2022-12-18T16:35:18.386Z,3.78
2022-12-18T16:37:48.462Z,3.33
2022-12-18T16:40:20.518Z,6.38
2022-12-18T16:42:51.632Z,3.78
2022-12-18T16:45:22.114Z,4.43
2022-12-18T16:47:52.415Z,4.25
2022-12-18T16:50:22.743Z,3.35
2022-12-18T16:52:52.694Z,3.83
2022-12-18T16:55:23.008Z,3.42
2022-12-18T16:57:52.988Z,3.60
2022-12-18T17:00:23.538Z,4.82
2022-12-18T17:02:53.742Z,2.40
2022-12-18T17:05:24.298Z,5.38
2022-12-18T17:07:54.253Z,4.28
2022-12-18T17:10:24.647Z,3.95
2022-12-18T17:12:55.631Z,4.57
2022-12-18T17:15:25.970Z,4.00
2022-12-18T17:17:55.940Z,4.47
2022-12-18T17:20:27.143Z,3.83
2022-12-18T17:22:57.093Z,6.20
2022-12-18T17:25:28.527Z,3.10
2022-12-18T17:27:58.487Z,4.50
2022-12-18T17:32:58.185Z,9.40
2022-12-18T17:35:28.311Z,7.50
2022-12-18T17:37:58.728Z,8.07
2022-12-18T17:40:28.709Z,7.05
2022-12-18T17:42:59.330Z,7.20
2022-12-18T17:45:29.378Z,8.02
2022-12-18T17:48:00.087Z,6.22
2022-12-18T17:50:30.070Z,7.65
2022-12-18T17:53:00.930Z,8.77
2022-12-18T17:55:31.064Z,9.52
2022-12-18T17:58:01.656Z,5.72
2022-12-18T18:00:31.539Z,7.35
2022-12-18T18:03:02.263Z,7.93
2022-12-18T18:05:32.284Z,4.82
2022-12-18T18:08:02.737Z,6.45
2022-12-18T18:10:34.334Z,7.07
2022-12-18T18:13:25.330Z,6.28
2022-12-18T18:15:59.294Z,8.15
2022-12-18T18:18:29.804Z,5.63
2022-12-18T18:21:00.812Z,6.65
2022-12-18T18:23:32.350Z,4.88
2022-12-18T18:26:10.445Z,6.43
2022-12-18T18:28:40.906Z,3.47
2022-12-18T18:31:12.035Z,8.20
2022-12-18T18:33:43.136Z,3.63
2022-12-18T18:36:13.606Z,3.85
2022-12-18T18:38:48.238Z,3.92
2022-12-18T18:41:19.352Z,5.80
2022-12-18T18:43:50.315Z,8.25
2022-12-18T18:46:25.001Z,9.15
2022-12-18T18:48:56.640Z,5.55
2022-12-18T18:51:34.669Z,3.80
2022-12-18T18:54:05.923Z,10.65
2022-12-18T18:59:31.766Z,2.33
2022-12-18T19:02:04.321Z,4.05
2022-12-18T19:04:36.077Z,5.00
2022-12-18T19:07:08.428Z,5.13
2022-12-18T19:09:41.936Z,3.47
2022-12-18T19:12:29.700Z,2.67
2022-12-18T19:15:00.210Z,1.98
2022-12-18T19:17:31.526Z,2.47
2022-12-18T19:20:02.407Z,2.15
2022-12-18T19:22:32.610Z,2.50
2022-12-18T19:25:03.019Z,4.07
2022-12-18T19:27:33.053Z,2.65
2022-12-18T19:30:03.487Z,1.80
2022-12-18T19:32:33.797Z,2.25
2022-12-18T19:35:05.467Z,2.85
2022-12-18T19:37:36.923Z,3.10
2022-12-18T19:40:12.113Z,2.10
2022-12-18T19:42:43.437Z,2.60
2022-12-18T19:45:15.393Z,3.42
2022-12-18T19:47:45.363Z,3.08
2022-12-18T19:50:16.040Z,6.07
2022-12-18T19:52:48.752Z,5.07
2022-12-18T19:55:19.649Z,3.70
2022-12-18T19:57:49.645Z,3.33
2022-12-18T20:02:49.694Z,3.90
2022-12-18T20:05:26.341Z,6.47
2022-12-18T20:07:56.764Z,3.83
2022-12-18T20:10:26.857Z,6.85
2022-12-18T20:12:57.215Z,2.65
2022-12-18T20:15:27.849Z,4.95
2022-12-18T20:17:58.349Z,6.13
2022-12-18T20:20:28.649Z,2.67
2022-12-18T20:22:59.067Z,2.85
2022-12-18T20:25:29.203Z,3.65
2022-12-18T20:27:59.567Z,4.40
2022-12-18T20:32:59.594Z,4.60
2022-12-18T20:35:32.240Z,2.28
2022-12-18T20:38:03.024Z,2.85
2022-12-18T20:40:35.314Z,3.15
2022-12-18T20:43:05.910Z,2.80
2022-12-18T20:45:36.202Z,2.08
2022-12-18T20:48:08.514Z,2.17
2022-12-18T20:50:38.604Z,2.08
2022-12-18T20:55:44.316Z,2.42
2022-12-18T20:58:14.286Z,4.07
2022-12-18T21:00:44.673Z,4.82
2022-12-18T21:03:15.114Z,4.25
2022-12-18T21:05:45.587Z,2.10
2022-12-18T21:10:45.809Z,3.88
2022-12-18T21:13:15.793Z,6.88
2022-12-18T21:15:47.839Z,7.80
2022-12-18T21:18:20.647Z,4.70
2022-12-18T21:20:51.493Z,3.58
2022-12-18T21:23:21.293Z,2.95
2022-12-18T21:25:55.919Z,5.88
2022-12-18T21:28:26.156Z,7.57
2022-12-18T21:30:57.189Z,8.35
2022-12-18T21:33:27.289Z,5.28
2022-12-18T21:35:57.753Z,9.38
2022-12-18T21:40:59.957Z,7.78
2022-12-18T21:43:48.046Z,4.45
2022-12-18T21:46:18.965Z,7.97
2022-12-18T21:48:49.174Z,8.10
2022-12-18T21:51:19.680Z,5.50
2022-12-18T21:53:49.716Z,6.38
2022-12-18T21:56:20.491Z,8.27
2022-12-18T22:01:32.675Z,2.38
2022-12-18T22:04:07.712Z,3.72
2022-12-18T22:06:38.454Z,7.30
2022-12-18T22:09:08.707Z,4.25
2022-12-18T22:11:39.162Z,4.75
2022-12-18T22:16:39.364Z,4.35
2022-12-18T22:19:10.589Z,8.68
2022-12-18T22:21:43.913Z,4.78
2022-12-18T22:24:21.176Z,6.20
2022-12-18T22:26:54.079Z,7.93
2022-12-18T22:29:46.828Z,8.30
2022-12-18T22:32:30.798Z,5.50
2022-12-18T22:35:12.918Z,7.60
2022-12-18T22:37:46.797Z,3.53
2022-12-18T22:40:25.503Z,4.65
2022-12-18T22:42:57.294Z,4.18
2022-12-18T22:45:29.034Z,7.60
2022-12-18T22:47:59.697Z,9.30
2022-12-18T22:50:30.077Z,4.38
2022-12-18T22:53:00.510Z,9.10
2022-12-18T22:55:30.319Z,3.67
2022-12-18T22:58:00.789Z,5.70
2022-12-18T23:00:30.727Z,5.97
2022-12-18T23:03:01.449Z,4.43
2022-12-18T23:05:33.189Z,2.80
2022-12-18T23:08:03.656Z,1.15
2022-12-18T23:10:33.585Z,4.13
2022-12-18T23:13:03.414Z,1.15
2022-12-18T23:15:34.659Z,1.45
2022-12-18T23:18:05.526Z,1.75
2022-12-18T23:20:36.623Z,1.45
2022-12-18T23:23:07.190Z,1.42
2022-12-18T23:25:37.960Z,0.93
2022-12-18T23:28:08.154Z,3.40
2022-12-18T23:30:38.546Z,1.65
2022-12-18T23:33:08.413Z,0.80
2022-12-18T23:35:38.994Z,2.13
2022-12-18T23:40:38.277Z,1.55
2022-12-18T23:43:08.666Z,2.35
2022-12-18T23:45:44.473Z,2.10
2022-12-18T23:48:15.042Z,2.90
2022-12-18T23:50:45.170Z,1.33
2022-12-18T23:53:15.947Z,3.15
2022-12-18T23:55:46.909Z,2.00
2022-12-18T23:58:24.656Z,3.10
